createdAt,value
2017-11-23T00:24:26.749Z,6.70
2017-11-23T00:26:53.208Z,6.70
2017-11-23T00:29:20.332Z,6.60
2017-11-23T00:31:46.804Z,6.50
2017-11-23T00:34:13.204Z,6.50
2017-11-23T00:36:40.345Z,6.40
2017-11-23T00:39:07.502Z,6.40
2017-11-23T00:41:34.693Z,6.40
2017-11-23T00:44:01.846Z,6.40
2017-11-23T00:46:28.796Z,6.40
2017-11-23T00:48:55.201Z,6.30
2017-11-23T00:51:22.341Z,6.10
2017-11-23T00:53:48.741Z,6.10
2017-11-23T00:56:15.160Z,6.00
2017-11-23T00:58:41.604Z,6.00
2017-11-23T01:01:08.048Z,6.00
2017-11-23T01:03:35.243Z,5.80
2017-11-23T01:06:01.652Z,5.80
2017-11-23T01:08:28.824Z,5.70
2017-11-23T03:27:41.184Z,3.10
2017-11-23T03:30:07.641Z,3.20
2017-11-23T03:32:34.832Z,3.10
2017-11-23T03:35:01.256Z,3.00
2017-11-23T03:37:27.671Z,3.00
2017-11-23T03:39:54.855Z,3.10
2017-11-23T03:42:21.381Z,3.00
2017-11-23T03:44:47.863Z,3.10
2017-11-23T03:47:15.064Z,3.00
2017-11-23T03:49:41.545Z,3.00
2017-11-23T03:52:08.774Z,3.00
2017-11-23T03:54:35.435Z,3.00
2017-11-23T03:57:02.621Z,3.00
2017-11-23T03:59:29.113Z,3.00
2017-11-23T04:01:55.554Z,3.00
2017-11-23T04:04:22.783Z,3.40
2017-11-23T04:06:49.198Z,3.30
2017-11-23T04:09:15.649Z,3.50
2017-11-23T04:11:42.176Z,3.60
2017-11-23T04:14:08.635Z,3.70
2017-11-23T04:16:35.854Z,4.00
2017-11-23T04:19:02.299Z,4.00
2017-11-23T04:21:28.754Z,4.20
2017-11-23T04:23:55.231Z,4.20
2017-11-23T04:26:21.719Z,4.50
2017-11-23T04:28:48.235Z,4.70
2017-11-23T04:31:14.663Z,4.80
2017-11-23T04:33:41.095Z,4.90
2017-11-23T04:36:07.521Z,5.00
2017-11-23T04:38:33.954Z,5.20
2017-11-23T04:41:00.487Z,5.20
2017-11-23T04:43:26.959Z,5.30
2017-11-23T04:45:54.133Z,5.40
2017-11-23T04:48:20.580Z,5.30
2017-11-23T04:50:47.011Z,5.50
2017-11-23T04:53:13.406Z,5.70
2017-11-23T04:55:39.794Z,5.90
2017-11-23T04:58:06.182Z,6.10
2017-11-23T05:00:33.726Z,6.30
2017-11-23T05:03:00.165Z,6.30
2017-11-23T05:05:26.626Z,6.40
2017-11-23T05:07:53.775Z,6.60
2017-11-23T05:10:20.974Z,6.60
2017-11-23T05:12:47.426Z,6.60
2017-11-23T05:15:13.834Z,6.60
2017-11-23T05:17:40.260Z,6.50
2017-11-23T05:20:06.715Z,6.50
2017-11-23T05:22:33.127Z,6.40
2017-11-23T05:24:59.536Z,6.40
2017-11-23T05:27:25.972Z,6.40
2017-11-23T05:29:53.222Z,6.40
2017-11-23T05:32:19.650Z,6.30
2017-11-23T05:34:46.047Z,6.40
2017-11-23T05:37:12.460Z,6.40
2017-11-23T05:39:38.865Z,6.30
2017-11-23T05:42:05.266Z,6.40
2017-11-23T05:44:31.711Z,6.30
2017-11-23T05:46:58.246Z,6.30
2017-11-23T05:49:24.745Z,6.30
2017-11-23T05:51:51.171Z,6.30
2017-11-23T05:54:17.580Z,6.30
2017-11-23T05:56:44.005Z,6.30
2017-11-23T05:59:10.463Z,6.20
2017-11-23T06:01:37.017Z,6.10
2017-11-23T06:04:03.426Z,5.90
2017-11-23T06:06:29.850Z,5.80
2017-11-23T06:08:56.327Z,5.60
2017-11-23T06:11:23.479Z,5.70
2017-11-23T06:13:49.920Z,5.70
2017-11-23T06:16:16.349Z,6.00
2017-11-23T06:18:42.758Z,6.10
2017-11-23T06:21:09.167Z,6.10
2017-11-23T06:23:35.618Z,6.20
2017-11-23T06:26:02.031Z,6.10
2017-11-23T06:28:28.451Z,6.20
2017-11-23T06:30:54.923Z,6.20
2017-11-23T06:33:21.327Z,6.20
2017-11-23T06:35:47.734Z,6.10
2017-11-23T06:38:14.191Z,6.10
2017-11-23T06:40:40.622Z,6.10
2017-11-23T06:43:07.060Z,6.00
2017-11-23T06:45:33.459Z,6.10
2017-11-23T06:47:59.877Z,6.10
2017-11-23T06:50:26.289Z,6.10
2017-11-23T06:52:53.424Z,6.10
2017-11-23T06:55:20.691Z,6.20
2017-11-23T06:57:47.843Z,6.30
2017-11-23T07:00:14.243Z,6.30
2017-11-23T07:02:41.089Z,6.50
2017-11-23T07:05:07.533Z,6.80
2017-11-23T07:07:34.004Z,6.90
2017-11-23T07:10:00.403Z,7.00
2017-11-23T07:12:26.851Z,7.00
2017-11-23T07:14:53.266Z,7.00
2017-11-23T07:17:19.703Z,7.20
2017-11-23T07:19:46.147Z,7.20
2017-11-23T07:22:13.307Z,7.40
2017-11-23T07:24:39.750Z,7.40
2017-11-23T07:27:06.211Z,7.40
2017-11-23T07:29:32.610Z,7.60
2017-11-23T07:31:59.021Z,7.70
2017-11-23T07:34:25.462Z,7.80
2017-11-23T07:36:52.600Z,8.00
2017-11-23T07:39:19.134Z,8.00
2017-11-23T07:41:45.546Z,8.10
2017-11-23T07:44:12.685Z,8.30
2017-11-23T07:46:40.628Z,8.40
2017-11-23T07:49:07.045Z,8.40
2017-11-23T07:51:33.443Z,9.00
2017-11-23T07:53:59.868Z,9.50
2017-11-23T07:56:26.278Z,9.80
2017-11-23T07:58:53.479Z,10.70
2017-11-23T08:01:20.663Z,10.90
2017-11-23T08:03:47.120Z,10.80
2017-11-23T08:06:13.550Z,10.70
2017-11-23T08:08:39.974Z,10.50
2017-11-23T08:11:06.406Z,10.50
2017-11-23T08:13:32.822Z,10.60
2017-11-23T08:15:59.263Z,10.50
2017-11-23T08:18:25.732Z,10.30
2017-11-23T08:20:52.143Z,10.10
2017-11-23T08:23:18.597Z,9.90
2017-11-23T08:25:45.000Z,9.80
2017-11-23T08:28:11.436Z,9.70
2017-11-23T08:30:37.881Z,9.60
2017-11-23T08:33:04.285Z,9.60
2017-11-23T08:35:30.691Z,9.60
2017-11-23T08:37:57.420Z,9.70
2017-11-23T08:40:24.874Z,9.90
2017-11-23T08:42:51.287Z,9.90
2017-11-23T08:45:18.476Z,10.30
2017-11-23T08:47:45.599Z,10.60
2017-11-23T08:50:12.767Z,10.80
2017-11-23T08:52:44.141Z,10.80
2017-11-23T08:55:14.458Z,11.00
2017-11-23T08:57:41.705Z,11.10
2017-11-23T09:00:08.132Z,11.30
2017-11-23T09:02:34.561Z,11.40
2017-11-23T09:05:00.992Z,11.80
2017-11-23T09:07:28.110Z,12.70
2017-11-23T09:09:55.307Z,12.20
2017-11-23T09:12:21.746Z,12.20
2017-11-23T09:14:48.146Z,11.70
2017-11-23T09:17:15.309Z,11.00
2017-11-23T09:19:41.746Z,11.00
2017-11-23T09:22:08.157Z,10.90
2017-11-23T09:24:35.354Z,11.00
2017-11-23T09:27:01.787Z,11.00
2017-11-23T09:29:28.246Z,11.00
2017-11-23T09:31:54.721Z,10.90
2017-11-23T09:34:21.182Z,10.80
2017-11-23T09:36:47.647Z,10.80
2017-11-23T09:39:14.091Z,10.70
2017-11-23T09:41:40.516Z,10.70
2017-11-23T09:44:07.820Z,10.60
2017-11-23T09:46:34.261Z,10.50
2017-11-23T09:49:00.722Z,10.60
2017-11-23T09:51:27.161Z,10.70
2017-11-23T09:53:53.599Z,10.60
2017-11-23T09:56:20.055Z,10.60
2017-11-23T09:58:47.054Z,10.60
2017-11-23T10:01:13.466Z,10.60
2017-11-23T10:03:39.857Z,10.70
2017-11-23T10:06:06.286Z,10.70
2017-11-23T10:08:32.730Z,10.80
2017-11-23T10:10:59.143Z,11.00
2017-11-23T10:13:25.626Z,11.00
2017-11-23T10:15:52.070Z,11.10
2017-11-23T10:18:18.477Z,11.20
2017-11-23T10:20:45.641Z,11.50
2017-11-23T10:23:12.818Z,11.60
2017-11-23T10:25:39.224Z,11.50
2017-11-23T10:28:05.666Z,11.80
2017-11-23T10:30:32.095Z,12.50
2017-11-23T10:32:58.557Z,13.00
2017-11-23T10:35:24.980Z,13.80
2017-11-23T10:37:51.446Z,13.60
2017-11-23T10:40:17.860Z,13.30
2017-11-23T10:42:44.352Z,13.20
2017-11-23T10:45:10.836Z,13.10
2017-11-23T10:47:38.704Z,13.20
2017-11-23T10:50:05.590Z,13.90
2017-11-23T10:52:32.095Z,14.50
2017-11-23T10:54:58.609Z,14.80
2017-11-23T10:57:25.831Z,14.30
2017-11-23T10:59:52.331Z,14.30
2017-11-23T11:02:19.557Z,14.70
2017-11-23T11:04:46.026Z,14.70
2017-11-23T11:07:12.467Z,14.90
2017-11-23T11:09:38.904Z,14.80
2017-11-23T11:12:05.321Z,14.20
2017-11-23T11:14:31.751Z,13.60
2017-11-23T11:16:58.919Z,13.80
2017-11-23T11:19:25.366Z,13.80
2017-11-23T11:21:51.820Z,14.10
2017-11-23T11:24:18.312Z,14.10
2017-11-23T11:26:44.751Z,13.80
2017-11-23T11:29:11.178Z,13.80
2017-11-23T11:31:37.622Z,13.70
2017-11-23T11:34:04.070Z,13.60
2017-11-23T11:36:30.474Z,13.50
2017-11-23T11:38:56.947Z,13.50
2017-11-23T11:41:23.393Z,13.50
2017-11-23T11:43:50.597Z,13.50
2017-11-23T11:46:17.002Z,13.50
2017-11-23T11:48:43.443Z,13.50
2017-11-23T11:51:10.635Z,13.40
2017-11-23T11:53:37.056Z,13.40
2017-11-23T11:56:03.482Z,13.40
2017-11-23T11:58:29.905Z,13.40
2017-11-23T12:00:56.308Z,13.40
2017-11-23T12:03:23.475Z,13.30
2017-11-23T12:05:50.647Z,13.20
2017-11-23T12:08:17.060Z,13.20
2017-11-23T12:10:44.226Z,13.20
2017-11-23T12:13:10.802Z,13.20
2017-11-23T12:15:37.337Z,13.30
2017-11-23T12:18:16.078Z,13.30
2017-11-23T12:20:54.994Z,13.50
2017-11-23T12:23:33.711Z,13.50
2017-11-23T12:26:00.122Z,13.60
2017-11-23T12:28:40.151Z,13.60
2017-11-23T12:31:06.573Z,13.60
2017-11-23T12:33:33.023Z,13.60
2017-11-23T12:35:59.463Z,13.60
2017-11-23T12:38:25.911Z,13.60
2017-11-23T12:40:52.311Z,13.60
2017-11-23T12:43:18.742Z,13.60
2017-11-23T12:45:45.152Z,13.50
2017-11-23T12:48:12.315Z,13.50
2017-11-23T12:50:38.735Z,13.50
2017-11-23T12:53:05.189Z,13.40
2017-11-23T12:55:31.641Z,13.40
2017-11-23T12:57:58.056Z,13.30
2017-11-23T13:00:24.496Z,13.30
2017-11-23T13:02:50.972Z,13.30
2017-11-23T13:05:17.382Z,13.30
2017-11-23T13:07:43.814Z,13.30
2017-11-23T13:10:10.214Z,13.30
2017-11-23T13:12:36.665Z,13.40
2017-11-23T13:15:03.158Z,13.30
2017-11-23T13:17:29.550Z,13.20
2017-11-23T13:19:55.995Z,13.20
2017-11-23T13:22:22.400Z,13.20
2017-11-23T13:24:48.914Z,13.20
2017-11-23T13:27:15.373Z,13.20
2017-11-23T13:29:41.767Z,13.20
2017-11-23T13:32:08.961Z,13.10
2017-11-23T13:34:35.340Z,13.10
2017-11-23T13:37:02.630Z,13.10
2017-11-23T13:39:29.123Z,13.10
2017-11-23T13:41:55.555Z,13.10
2017-11-23T13:44:22.160Z,13.10
2017-11-23T13:46:48.549Z,13.00
2017-11-23T13:49:14.962Z,13.00
2017-11-23T13:51:42.138Z,13.10
2017-11-23T13:54:08.603Z,13.10
2017-11-23T13:56:35.094Z,13.00
2017-11-23T13:59:02.251Z,13.00
2017-11-23T14:01:28.677Z,12.90
2017-11-23T14:03:55.156Z,13.00
2017-11-23T14:06:21.615Z,12.90
2017-11-23T14:08:48.839Z,12.80
2017-11-23T14:11:15.274Z,12.80
2017-11-23T14:13:41.722Z,12.80
2017-11-23T14:16:08.123Z,12.70
2017-11-23T14:18:34.506Z,12.70
2017-11-23T14:21:01.769Z,12.70
2017-11-23T14:23:28.239Z,12.70
2017-11-23T14:25:54.652Z,12.70
2017-11-23T14:28:21.067Z,12.60
2017-11-23T14:30:48.202Z,12.60
2017-11-23T14:33:14.620Z,12.60
2017-11-23T14:35:41.061Z,12.70
2017-11-23T14:38:07.565Z,12.70
2017-11-23T14:53:29.457Z,12.50
2017-11-23T14:55:55.892Z,12.30
2017-11-23T14:58:22.311Z,12.20
2017-11-23T15:00:48.766Z,12.10
2017-11-23T15:03:15.161Z,12.00
2017-11-23T15:05:42.325Z,11.90
2017-11-23T15:08:08.766Z,11.80
2017-11-23T15:10:35.181Z,11.80
2017-11-23T15:13:01.577Z,11.60
2017-11-23T15:15:28.065Z,11.50
2017-11-23T15:17:54.483Z,11.50
2017-11-23T15:20:20.890Z,11.40
2017-11-23T15:22:47.329Z,11.40
2017-11-23T15:25:14.507Z,11.30
2017-11-23T15:27:40.989Z,11.20
2017-11-23T15:30:07.438Z,11.20
2017-11-23T15:32:34.640Z,11.10
2017-11-23T15:35:01.099Z,11.10
2017-11-23T15:37:27.545Z,11.00
2017-11-23T15:39:54.772Z,10.90
2017-11-23T15:42:21.194Z,10.90
2017-11-23T15:44:47.610Z,10.80
2017-11-23T15:47:14.027Z,10.80
2017-11-23T15:49:40.470Z,10.70
2017-11-23T15:52:06.910Z,10.60
2017-11-23T15:54:33.345Z,10.60
2017-11-23T15:56:59.774Z,10.50
2017-11-23T15:59:26.224Z,10.50
2017-11-23T16:01:52.668Z,10.50
2017-11-23T16:04:19.099Z,10.60
2017-11-23T16:06:45.538Z,10.60
2017-11-23T16:09:12.737Z,10.50
2017-11-23T16:11:39.225Z,10.60
2017-11-23T16:14:05.632Z,10.60
2017-11-23T16:16:32.096Z,10.60
2017-11-23T16:18:59.317Z,10.50
2017-11-23T16:21:25.732Z,10.50
2017-11-23T16:23:52.149Z,10.50
2017-11-23T16:26:18.629Z,10.50
2017-11-23T16:28:45.072Z,10.40
2017-11-23T16:31:11.504Z,10.40
2017-11-23T16:33:38.018Z,10.40
2017-11-23T16:36:04.465Z,10.40
2017-11-23T16:38:31.855Z,10.30
2017-11-23T16:41:10.151Z,10.30
2017-11-23T16:43:47.513Z,10.20
2017-11-23T16:46:19.903Z,10.20
2017-11-23T16:48:52.265Z,10.20
2017-11-23T16:51:24.900Z,10.10
2017-11-23T16:53:57.461Z,10.10
2017-11-23T16:56:30.776Z,10.10
2017-11-23T16:59:12.144Z,10.00
2017-11-23T17:01:55.127Z,10.10
2017-11-23T17:04:27.698Z,10.10
2017-11-23T17:07:13.942Z,10.10
2017-11-23T17:22:59.145Z,10.10
2017-11-23T17:25:25.585Z,10.00
2017-11-23T17:27:52.814Z,10.00
2017-11-23T17:30:19.275Z,10.00
2017-11-23T17:32:46.503Z,10.00
2017-11-23T17:35:13.006Z,10.00
2017-11-23T17:37:39.443Z,10.00
2017-11-23T17:40:06.612Z,10.10
2017-11-23T17:42:33.059Z,10.00
2017-11-23T17:45:00.277Z,10.00
2017-11-23T17:47:27.442Z,10.10
2017-11-23T17:49:53.970Z,10.00
2017-11-23T17:52:20.417Z,10.10
2017-11-23T17:54:46.861Z,10.10
2017-11-23T17:57:13.358Z,10.10
2017-11-23T17:59:39.792Z,10.10
2017-11-23T18:02:06.194Z,10.10
2017-11-23T18:04:33.412Z,10.10
2017-11-23T18:06:59.831Z,10.10
2017-11-23T18:09:26.278Z,10.00
2017-11-23T18:11:52.719Z,10.00
2017-11-23T18:14:19.161Z,10.00
2017-11-23T18:16:45.600Z,10.00
2017-11-23T18:19:12.143Z,10.10
2017-11-23T18:21:39.336Z,10.10
2017-11-23T18:24:05.775Z,10.10
2017-11-23T18:26:32.247Z,10.10
2017-11-23T18:28:58.699Z,10.10
2017-11-23T18:31:25.871Z,10.10
2017-11-23T18:33:52.333Z,10.00
2017-11-23T18:36:18.810Z,10.10
2017-11-23T18:38:45.242Z,10.10
2017-11-23T18:41:11.708Z,10.00
2017-11-23T18:43:38.213Z,10.10
2017-11-23T18:46:05.394Z,10.10
2017-11-23T18:48:31.825Z,10.00
2017-11-23T18:50:59.075Z,9.90
2017-11-23T18:53:25.522Z,9.80
2017-11-23T18:55:52.002Z,9.70
2017-11-23T18:58:20.273Z,9.70
2017-11-23T19:00:49.780Z,9.60
2017-11-23T19:03:18.634Z,9.70
2017-11-23T19:08:37.769Z,9.60
2017-11-23T19:14:18.784Z,9.40
2017-11-23T19:16:47.429Z,9.50
2017-11-23T19:19:14.656Z,9.60
2017-11-23T19:21:41.172Z,9.60
2017-11-23T19:24:07.664Z,9.60
2017-11-23T19:26:34.843Z,9.60
2017-11-23T19:29:02.002Z,9.60
2017-11-23T19:31:28.474Z,9.50
2017-11-23T19:33:54.945Z,9.50
2017-11-23T19:36:21.450Z,9.70
2017-11-23T19:38:47.913Z,9.70
2017-11-23T19:41:14.339Z,9.70
2017-11-23T19:43:40.869Z,9.70
2017-11-23T19:46:08.056Z,9.60
2017-11-23T19:48:34.538Z,9.60
2017-11-23T19:51:00.948Z,9.60
2017-11-23T19:53:27.373Z,9.70
2017-11-23T19:55:55.347Z,9.70
2017-11-23T19:58:21.828Z,9.70
2017-11-23T20:00:48.267Z,9.70
2017-11-23T20:03:15.436Z,9.80
2017-11-23T20:05:43.364Z,9.80
2017-11-23T20:08:09.844Z,9.90
2017-11-23T20:10:36.345Z,9.90
2017-11-23T20:13:03.577Z,9.90
2017-11-23T20:15:31.791Z,9.80
2017-11-23T20:17:58.271Z,9.80
2017-11-23T20:20:26.877Z,9.90
2017-11-23T20:22:53.343Z,9.90
2017-11-23T20:25:22.119Z,9.70
2017-11-23T20:27:49.287Z,9.60
2017-11-23T20:30:15.823Z,9.60
2017-11-23T20:32:45.766Z,9.60
2017-11-23T20:35:13.931Z,9.50
2017-11-23T20:37:41.659Z,9.40
2017-11-23T20:40:15.405Z,9.50
2017-11-23T20:42:42.859Z,9.40
2017-11-23T20:45:21.973Z,9.40
2017-11-23T20:47:57.609Z,9.40
2017-11-23T20:50:33.233Z,9.30
2017-11-23T20:53:13.939Z,9.30
2017-11-23T20:55:58.523Z,9.30
2017-11-23T20:58:33.753Z,9.40
2017-11-23T21:01:24.602Z,9.40
2017-11-23T21:06:59.833Z,9.40
2017-11-23T21:09:49.863Z,9.30
2017-11-23T21:12:24.233Z,9.30
2017-11-23T21:17:47.740Z,9.30
2017-11-23T21:20:25.962Z,9.30
2017-11-23T21:22:59.240Z,9.30
2017-11-23T21:25:25.642Z,9.30
2017-11-23T21:27:52.072Z,9.20
2017-11-23T21:30:18.477Z,9.20
2017-11-23T21:32:44.923Z,9.30
2017-11-23T21:35:11.342Z,9.30
2017-11-23T21:37:37.784Z,9.20
2017-11-23T21:40:04.210Z,9.20
2017-11-23T21:42:30.639Z,9.20
2017-11-23T21:44:57.060Z,9.30
2017-11-23T21:47:24.227Z,9.20
2017-11-23T21:49:50.692Z,9.20
2017-11-23T21:52:17.135Z,9.20
2017-11-23T21:54:43.614Z,9.10
2017-11-23T21:57:10.127Z,9.00
2017-11-23T21:59:37.319Z,8.90
2017-11-23T22:02:03.751Z,8.90
2017-11-23T22:07:10.683Z,8.80
2017-11-23T22:09:48.097Z,8.80
2017-11-23T22:12:15.311Z,8.70
2017-11-23T22:14:41.730Z,8.70
2017-11-23T22:17:08.562Z,8.70
2017-11-23T22:19:35.113Z,8.70
2017-11-23T22:22:01.541Z,8.60
2017-11-23T22:24:38.719Z,8.50
2017-11-23T22:27:14.828Z,8.50
2017-11-23T22:32:43.754Z,8.40
2017-11-23T22:38:20.207Z,8.30
2017-11-23T22:40:57.048Z,8.30
2017-11-23T22:49:05.775Z,8.20
2017-11-23T22:51:32.226Z,8.20
2017-11-23T22:53:58.671Z,8.20
2017-11-23T22:56:25.072Z,8.30
2017-11-23T22:58:53.802Z,8.40
2017-11-23T23:01:21.858Z,8.40
2017-11-23T23:04:05.073Z,8.40
2017-11-23T23:06:42.743Z,8.50
2017-11-23T23:09:18.771Z,8.50
2017-11-23T23:11:57.105Z,8.50
2017-11-23T23:17:28.139Z,8.40
2017-11-23T23:20:21.996Z,8.60
2017-11-23T23:23:21.943Z,8.60
2017-11-23T23:29:05.115Z,8.90
2017-11-23T23:31:33.301Z,8.90
2017-11-23T23:34:07.458Z,9.00
2017-11-23T23:36:57.843Z,9.10
2017-11-23T23:39:39.925Z,9.10
2017-11-23T23:42:06.350Z,9.00
2017-11-23T23:44:33.477Z,9.10
2017-11-23T23:47:10.120Z,9.10
2017-11-23T23:50:06.055Z,9.10
2017-11-23T23:52:49.366Z,9.10
